sensor_id;sensor_type;location;lat;lon;timestamp;temperature;humidity
41080;DHT22;26826;50.718;7.114;2023-12-20T00:05:19;7.10;99.90
41080;DHT22;26826;50.718;7.114;2023-12-20T00:15:19;7.20;99.90
41080;DHT22;26826;50.718;7.114;2023-12-20T00:25:20;7.20;99.90
41080;DHT22;26826;50.718;7.114;2023-12-20T00:35:20;7.20;99.90
41080;DHT22;26826;50.718;7.114;2023-12-20T00:45:20;7.10;99.90
41080;DHT22;26826;50.718;7.114;2023-12-20T00:55:21;7.20;99.90
41080;DHT22;26826;50.718;7.114;2023-12-20T01:05:21;7.20;99.90
41080;DHT22;26826;50.718;7.114;2023-12-20T01:15:25;7.20;99.90
41080;DHT22;26826;50.718;7.114;2023-12-20T01:25:25;7.10;99.90
41080;DHT22;26826;50.718;7.114;2023-12-20T01:35:26;7.20;99.90
41080;DHT22;26826;50.718;7.114;2023-12-20T01:45:26;7.20;99.90
41080;DHT22;26826;50.718;7.114;2023-12-20T01:55:27;7.20;99.90
41080;DHT22;26826;50.718;7.114;2023-12-20T02:05:34;7.20;99.90
41080;DHT22;26826;50.718;7.114;2023-12-20T02:15:35;7.20;99.90
41080;DHT22;26826;50.718;7.114;2023-12-20T02:25:37;7.20;99.90
41080;DHT22;26826;50.718;7.114;2023-12-20T02:35:37;6.90;99.90
41080;DHT22;26826;50.718;7.114;2023-12-20T02:45:38;6.60;99.90
41080;DHT22;26826;50.718;7.114;2023-12-20T02:55:38;6.20;99.90
41080;DHT22;26826;50.718;7.114;2023-12-20T03:05:39;5.90;99.90
41080;DHT22;26826;50.718;7.114;2023-12-20T03:15:40;5.80;99.90
41080;DHT22;26826;50.718;7.114;2023-12-20T03:25:40;5.70;99.90
41080;DHT22;26826;50.718;7.114;2023-12-20T03:35:41;5.70;99.90
41080;DHT22;26826;50.718;7.114;2023-12-20T03:45:42;5.90;99.90
41080;DHT22;26826;50.718;7.114;2023-12-20T03:55:42;6.00;99.90
41080;DHT22;26826;50.718;7.114;2023-12-20T04:05:42;6.00;99.90
41080;DHT22;26826;50.718;7.114;2023-12-20T04:15:43;6.00;99.90
41080;DHT22;26826;50.718;7.114;2023-12-20T04:25:43;6.00;99.90
41080;DHT22;26826;50.718;7.114;2023-12-20T04:35:44;6.10;99.90
41080;DHT22;26826;50.718;7.114;2023-12-20T04:45:46;6.10;99.90
41080;DHT22;26826;50.718;7.114;2023-12-20T04:55:46;6.10;99.90
41080;DHT22;26826;50.718;7.114;2023-12-20T05:05:46;6.10;99.90
41080;DHT22;26826;50.718;7.114;2023-12-20T05:15:47;6.10;99.90
41080;DHT22;26826;50.718;7.114;2023-12-20T05:25:47;6.00;99.90
41080;DHT22;26826;50.718;7.114;2023-12-20T05:35:49;5.80;99.90
41080;DHT22;26826;50.718;7.114;2023-12-20T05:45:49;5.80;99.90
41080;DHT22;26826;50.718;7.114;2023-12-20T05:55:50;5.70;99.90
41080;DHT22;26826;50.718;7.114;2023-12-20T06:05:50;5.70;99.90
41080;DHT22;26826;50.718;7.114;2023-12-20T06:15:50;5.70;99.90
41080;DHT22;26826;50.718;7.114;2023-12-20T06:25:51;5.80;99.90
41080;DHT22;26826;50.718;7.114;2023-12-20T06:35:51;5.80;99.90
41080;DHT22;26826;50.718;7.114;2023-12-20T06:45:52;6.00;99.90
41080;DHT22;26826;50.718;7.114;2023-12-20T07:05:56;6.10;99.90
41080;DHT22;26826;50.718;7.114;2023-12-20T07:15:56;6.20;99.90
41080;DHT22;26826;50.718;7.114;2023-12-20T07:25:57;6.20;99.90
41080;DHT22;26826;50.718;7.114;2023-12-20T07:35:59;6.20;99.90
41080;DHT22;26826;50.718;7.114;2023-12-20T07:46:03;6.30;99.90
41080;DHT22;26826;50.718;7.114;2023-12-20T07:56:13;6.30;99.90
41080;DHT22;26826;50.718;7.114;2023-12-20T08:06:13;6.30;99.90
41080;DHT22;26826;50.718;7.114;2023-12-20T08:16:14;6.40;99.90
41080;DHT22;26826;50.718;7.114;2023-12-20T08:26:18;6.40;99.90
41080;DHT22;26826;50.718;7.114;2023-12-20T08:36:19;6.50;99.90
41080;DHT22;26826;50.718;7.114;2023-12-20T08:46:21;6.60;99.90
41080;DHT22;26826;50.718;7.114;2023-12-20T08:56:22;6.60;99.90
41080;DHT22;26826;50.718;7.114;2023-12-20T09:06:22;6.80;99.90
41080;DHT22;26826;50.718;7.114;2023-12-20T09:16:22;7.10;99.90
41080;DHT22;26826;50.718;7.114;2023-12-20T09:26:23;7.30;99.90
41080;DHT22;26826;50.718;7.114;2023-12-20T09:36:23;7.20;99.90
41080;DHT22;26826;50.718;7.114;2023-12-20T09:46:24;7.20;99.90
41080;DHT22;26826;50.718;7.114;2023-12-20T09:56:26;7.10;99.90
41080;DHT22;26826;50.718;7.114;2023-12-20T10:06:27;7.10;99.90
41080;DHT22;26826;50.718;7.114;2023-12-20T10:16:28;7.20;99.90
41080;DHT22;26826;50.718;7.114;2023-12-20T10:26:28;7.20;99.90
41080;DHT22;26826;50.718;7.114;2023-12-20T10:36:32;7.20;99.90
41080;DHT22;26826;50.718;7.114;2023-12-20T10:46:33;7.30;99.90
41080;DHT22;26826;50.718;7.114;2023-12-20T10:56:34;7.30;99.90
41080;DHT22;26826;50.718;7.114;2023-12-20T11:06:40;7.40;99.90
41080;DHT22;26826;50.718;7.114;2023-12-20T11:16:43;7.40;99.90
41080;DHT22;26826;50.718;7.114;2023-12-20T11:26:46;7.40;99.90
41080;DHT22;26826;50.718;7.114;2023-12-20T11:36:48;7.50;99.90
41080;DHT22;26826;50.718;7.114;2023-12-20T11:46:48;7.50;99.90
41080;DHT22;26826;50.718;7.114;2023-12-20T11:56:49;7.50;99.90
41080;DHT22;26826;50.718;7.114;2023-12-20T12:06:49;7.50;99.90
41080;DHT22;26826;50.718;7.114;2023-12-20T12:16:49;7.50;99.90
41080;DHT22;26826;50.718;7.114;2023-12-20T12:26:50;7.80;99.90
41080;DHT22;26826;50.718;7.114;2023-12-20T12:36:51;7.90;99.90
41080;DHT22;26826;50.718;7.114;2023-12-20T12:46:52;7.80;99.90
41080;DHT22;26826;50.718;7.114;2023-12-20T13:06:57;7.80;99.90
41080;DHT22;26826;50.718;7.114;2023-12-20T13:16:58;7.70;99.90
41080;DHT22;26826;50.718;7.114;2023-12-20T13:26:58;7.70;99.90
41080;DHT22;26826;50.718;7.114;2023-12-20T13:36:59;7.60;99.90
41080;DHT22;26826;50.718;7.114;2023-12-20T13:46:59;7.50;99.90
41080;DHT22;26826;50.718;7.114;2023-12-20T13:57:00;7.30;99.90
41080;DHT22;26826;50.718;7.114;2023-12-20T14:07:00;7.20;99.90
41080;DHT22;26826;50.718;7.114;2023-12-20T14:17:00;7.10;99.90
41080;DHT22;26826;50.718;7.114;2023-12-20T14:27:01;7.00;99.90
41080;DHT22;26826;50.718;7.114;2023-12-20T14:37:01;7.00;99.90
41080;DHT22;26826;50.718;7.114;2023-12-20T14:47:02;7.00;99.90
41080;DHT22;26826;50.718;7.114;2023-12-20T14:57:03;7.10;99.90
41080;DHT22;26826;50.718;7.114;2023-12-20T15:07:03;7.20;99.90
41080;DHT22;26826;50.718;7.114;2023-12-20T15:17:06;7.20;99.90
41080;DHT22;26826;50.718;7.114;2023-12-20T15:27:06;7.20;99.90
41080;DHT22;26826;50.718;7.114;2023-12-20T15:37:07;7.20;99.90
41080;DHT22;26826;50.718;7.114;2023-12-20T15:47:07;7.20;99.90
41080;DHT22;26826;50.718;7.114;2023-12-20T15:57:08;7.30;99.90
41080;DHT22;26826;50.718;7.114;2023-12-20T16:07:10;7.30;99.90
41080;DHT22;26826;50.718;7.114;2023-12-20T16:17:10;7.40;99.90
41080;DHT22;26826;50.718;7.114;2023-12-20T16:27:11;7.50;99.90
41080;DHT22;26826;50.718;7.114;2023-12-20T16:37:11;7.40;99.90
41080;DHT22;26826;50.718;7.114;2023-12-20T16:47:11;7.40;99.90
41080;DHT22;26826;50.718;7.114;2023-12-20T16:57:12;7.30;99.90
41080;DHT22;26826;50.718;7.114;2023-12-20T17:07:12;7.20;99.90
41080;DHT22;26826;50.718;7.114;2023-12-20T17:17:13;7.20;99.90
41080;DHT22;26826;50.718;7.114;2023-12-20T17:27:13;7.30;99.90
41080;DHT22;26826;50.718;7.114;2023-12-20T17:37:14;7.30;99.90
41080;DHT22;26826;50.718;7.114;2023-12-20T17:47:14;7.40;99.90
41080;DHT22;26826;50.718;7.114;2023-12-20T17:57:15;7.50;99.90
41080;DHT22;26826;50.718;7.114;2023-12-20T18:07:16;7.50;99.90
41080;DHT22;26826;50.718;7.114;2023-12-20T18:17:16;7.80;99.90
41080;DHT22;26826;50.718;7.114;2023-12-20T18:27:17;7.90;99.90
41080;DHT22;26826;50.718;7.114;2023-12-20T18:37:17;7.90;99.90
41080;DHT22;26826;50.718;7.114;2023-12-20T18:47:18;7.90;99.90
41080;DHT22;26826;50.718;7.114;2023-12-20T19:07:21;8.10;99.90
41080;DHT22;26826;50.718;7.114;2023-12-20T19:17:22;8.00;99.90
41080;DHT22;26826;50.718;7.114;2023-12-20T19:27:23;8.10;99.90
41080;DHT22;26826;50.718;7.114;2023-12-20T19:37:24;8.10;99.90
41080;DHT22;26826;50.718;7.114;2023-12-20T19:47:24;8.20;99.90
41080;DHT22;26826;50.718;7.114;2023-12-20T19:57:25;8.30;99.90
41080;DHT22;26826;50.718;7.114;2023-12-20T20:07:25;8.30;99.90
41080;DHT22;26826;50.718;7.114;2023-12-20T20:17:26;8.50;99.90
41080;DHT22;26826;50.718;7.114;2023-12-20T20:27:26;8.50;99.90
41080;DHT22;26826;50.718;7.114;2023-12-20T20:37:27;8.60;99.90
41080;DHT22;26826;50.718;7.114;2023-12-20T20:47:27;8.60;99.90
41080;DHT22;26826;50.718;7.114;2023-12-20T20:57:27;8.80;99.90
41080;DHT22;26826;50.718;7.114;2023-12-20T21:07:28;8.80;99.90
41080;DHT22;26826;50.718;7.114;2023-12-20T21:17:31;8.80;99.90
41080;DHT22;26826;50.718;7.114;2023-12-20T21:27:32;8.90;99.90
41080;DHT22;26826;50.718;7.114;2023-12-20T21:37:34;9.00;99.90
41080;DHT22;26826;50.718;7.114;2023-12-20T21:47:35;9.10;99.90
41080;DHT22;26826;50.718;7.114;2023-12-20T21:57:35;9.10;99.90
41080;DHT22;26826;50.718;7.114;2023-12-20T22:07:36;9.10;99.90
41080;DHT22;26826;50.718;7.114;2023-12-20T22:17:36;9.00;99.90
41080;DHT22;26826;50.718;7.114;2023-12-20T22:27:38;9.10;99.90
41080;DHT22;26826;50.718;7.114;2023-12-20T22:37:38;9.10;99.90
41080;DHT22;26826;50.718;7.114;2023-12-20T22:47:38;9.00;99.90
41080;DHT22;26826;50.718;7.114;2023-12-20T22:57:39;9.10;99.90
41080;DHT22;26826;50.718;7.114;2023-12-20T23:07:40;9.10;99.90
41080;DHT22;26826;50.718;7.114;2023-12-20T23:17:40;8.80;99.90
41080;DHT22;26826;50.718;7.114;2023-12-20T23:27:41;8.60;99.90
41080;DHT22;26826;50.718;7.114;2023-12-20T23:37:42;8.40;99.90
41080;DHT22;26826;50.718;7.114;2023-12-20T23:47:43;8.40;99.90
41080;DHT22;26826;50.718;7.114;2023-12-20T23:57:43;8.50;99.90
